Time;durP1;ratioP1;P1;durP2;ratioP2;P2;SDS_P1;SDS_P2;PMS_P1;PMS_P2;Temp;Humidity;BMP_temperature;BMP_pressure;BME280_temperature;BME280_humidity;BME280_pressure;Samples;Min_cycle;Max_cycle;Signal;HPM_P1;HPM_P2
2022/12/05 00:01:22;;;;;;;1.38;1.27;;;;;;;-13.91;82.90;102105.47;4981943;28;20050;-83
2022/12/05 00:03:52;;;;;;;1.60;1.50;;;;;;;-13.92;82.71;102100.25;4965306;28;20058;-84
2022/12/05 00:06:20;;;;;;;1.13;1.13;;;;;;;-13.92;82.77;102097.66;4981726;28;20058;-81
2022/12/05 00:08:47;;;;;;;1.50;1.40;;;;;;;-13.93;83.02;102107.19;4981900;28;20050;-82
2022/12/05 00:11:17;;;;;;;1.35;1.25;;;;;;;-13.94;82.93;102107.22;4981025;28;20457;-83
2022/12/05 00:13:44;;;;;;;1.52;1.42;;;;;;;-13.92;82.90;102113.25;4954541;28;20568;-82
2022/12/05 00:16:14;;;;;;;1.52;1.42;;;;;;;-13.94;83.00;102104.63;4972109;28;20050;-82
2022/12/05 00:18:41;;;;;;;1.48;1.38;;;;;;;-13.93;82.80;102106.34;4971975;28;20425;-83
2022/12/05 00:21:20;;;;;;;1.40;1.30;;;;;;;-13.97;82.62;102101.19;4972347;28;20051;-82
2022/12/05 00:23:51;;;;;;;1.48;1.38;;;;;;;-14.02;82.76;102095.16;4971674;28;20545;-82
2022/12/05 00:26:18;;;;;;;1.35;1.25;;;;;;;-14.01;82.74;102098.63;4954789;28;20053;-82
2022/12/05 00:28:46;;;;;;;1.60;1.50;;;;;;;-13.99;82.81;102102.06;4954477;28;20414;-84
2022/12/05 00:31:19;;;;;;;1.20;1.20;;;;;;;-14.01;82.85;102094.28;4972209;28;20055;-83
2022/12/05 00:33:47;;;;;;;1.50;1.40;;;;;;;-14.02;82.85;102087.38;4972163;28;20061;-83
2022/12/05 00:36:20;;;;;;;1.38;1.27;;;;;;;-14.04;82.97;102096.91;4972051;28;20074;-83
2022/12/05 00:38:47;;;;;;;1.40;1.30;;;;;;;-14.06;82.79;102090.88;4971713;28;20145;-81
2022/12/05 00:41:17;;;;;;;1.38;1.27;;;;;;;-14.09;82.84;102090.03;4954571;28;20082;-82
2022/12/05 00:43:44;;;;;;;1.15;1.15;;;;;;;-14.07;82.81;102098.69;4976129;28;20419;-82
2022/12/05 00:46:14;;;;;;;1.63;1.52;;;;;;;-14.13;82.91;102086.59;4975664;28;20047;-82
2022/12/05 00:48:42;;;;;;;1.40;1.30;;;;;;;-14.11;82.95;102081.41;4975647;28;20050;-82
2022/12/05 00:51:21;;;;;;;1.55;1.45;;;;;;;-14.12;82.99;102084.88;4975675;28;20050;-82
2022/12/05 00:53:49;;;;;;;1.40;1.30;;;;;;;-14.18;83.12;102072.78;4975318;28;20055;-82
2022/12/05 00:56:18;;;;;;;1.27;1.20;;;;;;;-14.17;82.98;102079.72;4975324;28;20085;-82
2022/12/05 00:58:46;;;;;;;1.60;1.50;;;;;;;-14.19;82.92;102078.88;4975402;28;20047;-82
2022/12/05 01:01:22;;;;;;;1.63;1.52;;;;;;;-14.17;83.13;102071.94;4975406;28;20043;-82
2022/12/05 01:03:52;;;;;;;1.23;1.20;;;;;;;-14.19;83.11;102077.13;4975317;28;20063;-82
2022/12/05 01:06:19;;;;;;;1.30;1.20;;;;;;;-14.23;83.08;102075.44;4958118;28;20061;-82
2022/12/05 01:08:46;;;;;;;1.40;1.30;;;;;;;-14.28;83.13;102073.72;4975536;28;20055;-82
2022/12/05 01:11:15;;;;;;;1.40;1.30;;;;;;;-14.27;83.28;102075.47;4975798;28;20062;-82
2022/12/05 01:13:43;;;;;;;1.48;1.38;;;;;;;-14.24;83.41;102078.03;4975211;28;20066;-82
2022/12/05 01:16:22;;;;;;;1.52;1.42;;;;;;;-14.23;83.33;102072.84;4963797;28;20057;-82
2022/12/05 01:18:50;;;;;;;1.50;1.40;;;;;;;-14.22;83.16;102065.91;4973163;28;20047;-84
2022/12/05 01:21:17;;;;;;;1.25;1.20;;;;;;;-14.23;83.01;102059.00;4985803;28;20058;-83
2022/12/05 01:23:44;;;;;;;1.40;1.30;;;;;;;-14.26;83.16;102053.81;4975292;28;20050;-83
2022/12/05 01:26:13;;;;;;;1.50;1.40;;;;;;;-14.27;82.98;102046.94;4977309;28;20059;-83
2022/12/05 01:28:40;;;;;;;1.50;1.40;;;;;;;-14.29;82.99;102041.75;4976229;28;20069;-82
2022/12/05 01:31:16;;;;;;;1.27;1.20;;;;;;;-14.32;83.38;102035.72;4976009;28;20051;-83
2022/12/05 01:33:43;;;;;;;1.45;1.35;;;;;;;-14.36;83.42;102034.88;4964096;28;20058;-81
2022/12/05 01:36:11;;;;;;;1.33;1.25;;;;;;;-14.32;83.51;102040.91;4983688;28;20078;-83
2022/12/05 01:38:39;;;;;;;1.40;1.30;;;;;;;-14.30;83.38;102040.03;4976554;28;20058;-83
2022/12/05 01:41:09;;;;;;;1.45;1.35;;;;;;;-14.29;83.53;102031.38;4973838;28;20058;-83
2022/12/05 01:43:52;;;;;;;1.50;1.40;;;;;;;-14.27;83.18;102033.97;4957388;28;20068;-83
2022/12/05 01:46:19;;;;;;;1.70;1.60;;;;;;;-14.34;83.07;102019.31;4975285;28;20449;-81
2022/12/05 01:48:46;;;;;;;1.40;1.30;;;;;;;-14.31;83.11;102027.06;4975487;28;20051;-83
2022/12/05 01:51:14;;;;;;;1.40;1.30;;;;;;;-14.32;83.27;102025.34;4975932;28;20047;-83
2022/12/05 01:53:41;;;;;;;1.77;1.67;;;;;;;-14.33;83.44;102019.28;4983309;28;20046;-82
2022/12/05 01:56:08;;;;;;;1.40;1.30;;;;;;;-14.33;83.21;102019.28;4980667;28;20070;-84
2022/12/05 01:58:37;;;;;;;1.63;1.52;;;;;;;-14.29;83.28;102027.91;4972974;28;20054;-83
2022/12/05 02:01:04;;;;;;;1.52;1.42;;;;;;;-14.33;83.07;102018.41;4974324;28;20050;-83
2022/12/05 02:03:31;;;;;;;1.60;1.50;;;;;;;-14.35;83.12;102022.75;4940910;28;20105;-84
2022/12/05 02:05:59;;;;;;;1.35;1.25;;;;;;;-14.31;83.15;102021.88;4973174;28;20074;-83
2022/12/05 02:08:27;;;;;;;1.52;1.42;;;;;;;-14.29;83.27;102020.97;4974067;28;20049;-84
2022/12/05 02:10:56;;;;;;;1.40;1.30;;;;;;;-14.30;83.09;102024.47;4956743;28;20054;-83
2022/12/05 02:13:47;;;;;;;1.50;1.40;;;;;;;-14.32;83.24;102026.22;4972688;28;20050;-82
2022/12/05 02:16:20;;;;;;;1.58;1.48;;;;;;;-14.33;83.27;102028.78;4956825;28;20051;-84
2022/12/05 02:19:25;;;;;;;1.40;1.30;;;;;;;-14.35;83.26;102028.81;4973931;28;20425;-82
2022/12/05 02:22:17;;;;;;;1.58;1.48;;;;;;;-14.37;83.10;102017.59;4974084;28;20102;-83
2022/12/05 02:25:17;;;;;;;1.40;1.30;;;;;;;-14.38;83.00;102010.66;4973664;28;20055;-83
2022/12/05 02:28:02;;;;;;;;;;;;;;;-14.39;82.93;102019.34;4974335;28;20059;-82
2022/12/05 02:30:38;;;;;;;1.50;1.40;;;;;;;-14.42;82.87;102020.22;4974415;28;19926;-83
2022/12/05 02:33:22;;;;;;;1.35;1.25;;;;;;;-14.45;83.00;102012.47;4974632;28;20042;-82
2022/12/05 02:36:08;;;;;;;1.40;1.30;;;;;;;-14.45;82.91;102012.47;4957659;28;20669;-83
2022/12/05 02:38:58;;;;;;;1.60;1.50;;;;;;;-14.51;82.99;101999.53;4973960;28;20106;-83
2022/12/05 02:41:45;;;;;;;1.38;1.27;;;;;;;-14.51;82.99;102004.72;4972307;28;20129;-84
2022/12/05 02:44:23;;;;;;;1.48;1.38;;;;;;;-14.53;82.89;101990.97;4972951;28;20074;-83
2022/12/05 02:46:51;;;;;;;1.40;1.30;;;;;;;-14.56;83.13;102000.47;4956141;28;20062;-82
2022/12/05 02:49:22;;;;;;;1.45;1.35;;;;;;;-14.58;83.20;101997.03;4973328;28;20046;-83
2022/12/05 02:51:52;;;;;;;1.42;1.33;;;;;;;-14.58;83.13;102000.50;4972180;28;20055;-84
2022/12/05 02:54:23;;;;;;;1.40;1.30;;;;;;;-14.60;83.15;101993.63;4955629;28;20150;-83
2022/12/05 02:56:51;;;;;;;1.60;1.50;;;;;;;-14.62;83.13;101996.22;4972063;28;20054;-83
2022/12/05 02:59:18;;;;;;;1.17;1.17;;;;;;;-14.62;83.12;101991.03;4956092;28;20158;-83
2022/12/05 03:01:49;;;;;;;1.50;1.40;;;;;;;-14.65;83.26;101983.28;4973904;28;20051;-83
2022/12/05 03:04:18;;;;;;;1.25;1.20;;;;;;;-14.67;83.33;101988.44;4973235;28;20549;-83
2022/12/05 03:06:51;;;;;;;1.60;1.50;;;;;;;-14.69;83.32;101979.81;4973054;28;20134;-82
2022/12/05 03:09:35;;;;;;;1.42;1.33;;;;;;;-14.76;83.26;101972.09;4955906;28;20047;-81
2022/12/05 03:12:18;;;;;;;1.50;1.40;;;;;;;-14.76;83.44;101977.28;4972744;28;20059;-82
2022/12/05 03:14:54;;;;;;;1.48;1.38;;;;;;;-14.83;83.24;101973.00;4955447;28;20433;-81
2022/12/05 03:17:24;;;;;;;1.55;1.45;;;;;;;-14.85;83.36;101978.22;4972658;28;20058;-81
2022/12/05 03:20:07;;;;;;;1.52;1.42;;;;;;;-14.90;83.46;101969.63;4972672;28;20055;-83
2022/12/05 03:22:47;;;;;;;1.77;1.67;;;;;;;-14.88;83.45;101971.31;4972441;28;20093;-84
2022/12/05 03:25:14;;;;;;;1.60;1.50;;;;;;;-14.87;83.64;101969.59;4973107;28;20058;-84
2022/12/05 03:27:52;;;;;;;1.65;1.55;;;;;;;-14.93;83.65;101970.50;4971654;28;20069;-84
2022/12/05 03:30:21;;;;;;;1.55;1.45;;;;;;;-14.90;83.56;101973.06;4972967;28;20108;-82
2022/12/05 03:32:54;;;;;;;1.35;1.25;;;;;;;-14.92;83.55;101969.63;4972417;28;20059;-81
2022/12/05 03:35:24;;;;;;;1.40;1.30;;;;;;;-14.89;83.75;101966.13;4973864;28;20100;-80
2022/12/05 03:37:58;;;;;;;1.17;1.17;;;;;;;-14.91;83.63;101962.69;4955349;28;20046;-87
2022/12/05 03:40:47;;;;;;;1.20;1.20;;;;;;;-14.92;83.70;101960.97;4957251;28;20126;-86
2022/12/05 03:43:33;;;;;;;1.30;1.23;;;;;;;-14.96;83.77;101962.75;4975494;28;20054;-88
2022/12/05 03:46:19;;;;;;;1.27;1.25;;;;;;;-14.95;83.81;101961.00;4977132;28;20622;-87
2022/12/05 03:49:32;;;;;;;1.42;1.33;;;;;;;-14.97;83.87;101953.22;4957078;28;20101;-84
2022/12/05 03:52:11;;;;;;;1.38;1.27;;;;;;;-14.96;83.71;101954.97;4912699;29;20064;-84
2022/12/05 03:54:57;;;;;;;1.08;1.08;;;;;;;-14.97;83.88;101944.59;4913195;29;20068;-87
2022/12/05 03:57:35;;;;;;;1.50;1.40;;;;;;;-15.05;83.71;101942.06;4918281;29;20048;-84
2022/12/05 04:00:20;;;;;;;1.70;1.60;;;;;;;-14.97;83.90;101945.47;4915037;29;20107;-85
2022/12/05 04:02:59;;;;;;;1.17;1.15;;;;;;;-15.00;83.80;101942.91;4898208;29;20065;-86
2022/12/05 04:05:31;;;;;;;1.48;1.38;;;;;;;-15.01;83.97;101941.19;4896894;29;20075;-85
2022/12/05 04:08:01;;;;;;;1.40;1.30;;;;;;;-15.04;84.08;101922.19;4890386;29;20087;-81
2022/12/05 04:10:30;;;;;;;1.38;1.27;;;;;;;-14.99;83.86;101936.81;4897045;29;20059;-83
2022/12/05 04:13:16;;;;;;;1.60;1.50;;;;;;;-14.99;83.89;101936.81;4881012;29;20060;-89
2022/12/05 04:18:46;;;;;;;1.67;1.58;;;;;;;-15.05;83.92;101929.09;4891833;29;20077;-84
2022/12/05 04:26:49;;;;;;;1.30;1.23;;;;;;;-15.03;83.87;101932.56;4921723;29;20137;-83
2022/12/05 04:29:23;;;;;;;1.58;1.48;;;;;;;-15.03;84.05;101932.56;4944331;29;20525;-84
2022/12/05 04:31:56;;;;;;;1.17;1.17;;;;;;;-15.07;83.86;101923.91;4932110;29;20062;-87
2022/12/05 04:34:23;;;;;;;1.60;1.50;;;;;;;-15.07;84.10;101920.47;4950518;28;20051;-84
2022/12/05 04:37:05;;;;;;;1.60;1.50;;;;;;;-15.05;84.03;101915.31;4932150;28;20070;-85
2022/12/05 04:39:38;;;;;;;1.55;1.45;;;;;;;-15.03;84.35;101905.78;4945731;29;20638;-86
2022/12/05 04:42:11;;;;;;;1.60;1.50;;;;;;;-14.99;84.19;101907.47;4927558;29;20043;-86
2022/12/05 04:44:48;;;;;;;1.45;1.35;;;;;;;-15.04;84.10;101902.31;4922112;29;20059;-83
2022/12/05 04:47:18;;;;;;;1.40;1.30;;;;;;;-15.05;84.08;101913.56;4932238;29;20062;-84
2022/12/05 04:49:46;;;;;;;1.50;1.40;;;;;;;-15.03;84.08;101910.97;4947860;29;20044;-84
2022/12/05 04:52:24;;;;;;;1.35;1.25;;;;;;;-15.02;84.07;101905.75;4950346;28;20052;-83
2022/12/05 04:54:57;;;;;;;1.50;1.40;;;;;;;-14.99;83.93;101903.13;4947091;29;20526;-83
2022/12/05 04:57:35;;;;;;;1.40;1.30;;;;;;;-14.96;83.78;101903.13;4929723;29;20052;-82
2022/12/05 05:00:07;;;;;;;1.50;1.40;;;;;;;-14.99;83.65;101894.50;4606450;29;10000441;-85
2022/12/05 05:02:44;;;;;;;1.40;1.30;;;;;;;-15.01;83.82;101891.94;4965435;28;20043;-86
2022/12/05 05:05:15;;;;;;;1.70;1.60;;;;;;;-14.98;83.68;101898.84;4917278;29;20071;-86
2022/12/05 05:07:50;;;;;;;1.55;1.45;;;;;;;-15.03;83.89;101888.50;4917062;29;20491;-84
2022/12/05 05:10:24;;;;;;;1.77;1.67;;;;;;;-15.03;83.80;101891.09;4932786;29;20368;-82
2022/12/05 05:12:52;;;;;;;1.50;1.40;;;;;;;-15.01;83.53;101891.06;4936532;29;20115;-85
2022/12/05 05:15:19;;;;;;;1.30;1.20;;;;;;;-14.99;83.77;101894.50;4940699;29;20166;-85
2022/12/05 05:17:46;;;;;;;1.33;1.23;;;;;;;-14.98;83.68;101897.09;4946880;29;20044;-87
2022/12/05 05:20:26;;;;;;;1.38;1.27;;;;;;;-14.97;83.60;101903.13;4930427;29;20047;-85
2022/12/05 05:23:07;;;;;;;1.80;1.70;;;;;;;-15.01;83.49;101902.31;4917395;28;20078;-86
2022/12/05 05:25:34;;;;;;;1.40;1.30;;;;;;;-15.03;83.49;101904.06;4957703;28;20172;-86
2022/12/05 05:28:02;;;;;;;1.40;1.30;;;;;;;-15.08;83.42;101898.03;4957549;28;20098;-87
2022/12/05 05:30:29;;;;;;;1.70;1.60;;;;;;;-15.04;83.63;101904.91;4940222;29;20128;-85
2022/12/05 05:32:58;;;;;;;1.60;1.50;;;;;;;-15.00;83.53;101905.75;4948626;29;20047;-84
2022/12/05 05:35:27;;;;;;;1.75;1.65;;;;;;;-14.93;83.61;101907.44;4936777;29;20123;-85
2022/12/05 05:37:54;;;;;;;1.55;1.45;;;;;;;-14.94;83.28;101903.97;4945283;29;20071;-84
2022/12/05 05:40:21;;;;;;;1.70;1.60;;;;;;;-14.89;83.22;101909.13;4943977;29;20569;-85
2022/12/05 05:42:53;;;;;;;1.50;1.40;;;;;;;-14.87;83.22;101897.00;4928878;29;20051;-83
2022/12/05 05:45:23;;;;;;;1.33;1.23;;;;;;;-14.83;82.99;101903.00;4945479;29;20071;-84
2022/12/05 05:47:50;;;;;;;1.40;1.30;;;;;;;-14.83;82.94;101903.91;4926365;29;20839;-83
2022/12/05 05:50:19;;;;;;;1.63;1.52;;;;;;;-14.78;82.83;101893.47;4922773;29;20103;-83
2022/12/05 05:52:48;;;;;;;1.25;1.23;;;;;;;-14.74;82.67;101887.41;4953413;29;20078;-83
2022/12/05 05:55:15;;;;;;;1.33;1.23;;;;;;;-14.70;82.24;101891.69;4958804;29;20078;-85
2022/12/05 05:57:42;;;;;;;1.40;1.30;;;;;;;-14.66;82.35;101886.47;4954359;29;20148;-84
2022/12/05 06:00:10;;;;;;;1.65;1.55;;;;;;;-14.63;82.23;101888.19;4963457;29;20051;-86
2022/12/05 06:02:37;;;;;;;1.60;1.50;;;;;;;-14.63;81.93;101883.00;4958125;29;20076;-85
2022/12/05 06:05:05;;;;;;;1.60;1.50;;;;;;;-14.57;81.82;101890.69;4931762;29;20052;-84
2022/12/05 06:07:32;;;;;;;1.42;1.33;;;;;;;-14.57;81.85;101880.31;4938213;29;20487;-86
2022/12/05 06:09:59;;;;;;;1.60;1.50;;;;;;;-14.54;81.88;101872.50;4950348;29;20574;-84
2022/12/05 06:12:28;;;;;;;1.40;1.30;;;;;;;-14.48;81.72;101887.09;4951930;29;20052;-83
2022/12/05 06:14:55;;;;;;;1.40;1.30;;;;;;;-14.44;81.38;101883.63;4947834;29;20059;-85
2022/12/05 06:17:23;;;;;;;1.38;1.27;;;;;;;-14.39;81.21;101886.19;4937522;29;20059;-86
2022/12/05 06:19:50;;;;;;;1.70;1.60;;;;;;;-14.34;81.10;101887.00;4936418;29;20086;-85
2022/12/05 06:22:17;;;;;;;1.27;1.20;;;;;;;-14.31;80.64;101895.59;4935764;29;20139;-85
2022/12/05 06:24:44;;;;;;;1.20;1.20;;;;;;;-14.28;80.35;101886.91;4940073;29;20051;-83
2022/12/05 06:27:11;;;;;;;1.50;1.40;;;;;;;-14.26;80.48;101885.16;4954978;29;20051;-83
2022/12/05 06:29:38;;;;;;;1.52;1.42;;;;;;;-14.20;80.38;101877.34;4954278;29;20075;-84
2022/12/05 06:32:05;;;;;;;1.70;1.60;;;;;;;-14.15;79.94;101864.28;4935604;29;20085;-83
2022/12/05 06:34:34;;;;;;;1.45;1.35;;;;;;;-14.10;79.69;101872.88;4950574;29;20051;-85
2022/12/05 06:37:01;;;;;;;1.55;1.45;;;;;;;-14.06;79.79;101880.63;4935833;29;20086;-84
2022/12/05 06:39:28;;;;;;;1.50;1.40;;;;;;;-13.95;79.57;101870.09;4947131;28;20052;-83
2022/12/05 06:41:55;;;;;;;1.73;1.63;;;;;;;-13.88;79.21;101876.94;4942011;29;20048;-84
2022/12/05 06:44:25;;;;;;;1.50;1.40;;;;;;;-13.80;79.12;101882.03;4945985;29;20051;-82
2022/12/05 06:46:53;;;;;;;1.70;1.60;;;;;;;-13.73;78.92;101875.88;4944523;29;20507;-82
2022/12/05 06:49:21;;;;;;;1.63;1.52;;;;;;;-13.64;78.54;101875.78;4943567;29;20111;-83
2022/12/05 06:51:55;;;;;;;1.50;1.40;;;;;;;-13.55;78.19;101873.03;4934362;29;20059;-83
2022/12/05 06:54:27;;;;;;;1.65;1.55;;;;;;;-13.47;77.88;101859.94;4922300;29;20150;-82
2022/12/05 06:56:56;;;;;;;1.40;1.30;;;;;;;-13.41;77.53;101870.25;4941984;29;20090;-84
2022/12/05 06:59:23;;;;;;;1.60;1.50;;;;;;;-13.34;77.14;101858.00;4946167;29;20048;-84
2022/12/05 07:01:50;;;;;;;1.80;1.70;;;;;;;-13.27;76.79;101858.78;4943614;29;20062;-84
2022/12/05 07:04:20;;;;;;;1.60;1.50;;;;;;;-12.95;76.17;101866.06;4946859;29;20055;-85
2022/12/05 07:06:50;;;;;;;1.45;1.35;;;;;;;-12.77;75.51;101870.97;4950252;29;20062;-84
2022/12/05 07:09:21;;;;;;;1.70;1.60;;;;;;;-12.64;74.79;101862.94;4947658;29;20055;-84
2022/12/05 07:12:04;;;;;;;1.80;1.70;;;;;;;-12.45;74.28;101857.38;4905623;29;20048;-85
2022/12/05 07:14:31;;;;;;;1.63;1.52;;;;;;;-12.40;73.75;101862.50;4936346;29;20055;-85
2022/12/05 07:17:13;;;;;;;1.70;1.60;;;;;;;-12.28;73.62;101858.81;4920702;29;20138;-84
2022/12/05 07:19:40;;;;;;;1.65;1.55;;;;;;;-12.14;73.20;101851.59;4935300;29;20058;-83
2022/12/05 07:22:07;;;;;;;1.83;1.73;;;;;;;-11.98;72.37;101859.09;4934655;29;20050;-84
2022/12/05 07:24:42;;;;;;;1.60;1.50;;;;;;;-11.78;71.69;101857.75;4935493;29;20051;-84
2022/12/05 07:27:09;;;;;;;1.80;1.70;;;;;;;-11.61;71.32;101853.94;4952257;29;20146;-83
2022/12/05 07:29:36;;;;;;;1.80;1.70;;;;;;;-11.56;70.31;101847.75;4942841;29;20138;-86
2022/12/05 07:32:03;;;;;;;1.70;1.60;;;;;;;-11.68;69.34;101855.81;4956259;29;20048;-82
2022/12/05 07:34:31;;;;;;;1.70;1.60;;;;;;;-11.80;69.65;101843.94;4937485;29;20059;-83
2022/12/05 07:36:59;;;;;;;1.45;1.35;;;;;;;-11.99;69.19;101844.38;4934959;29;20055;-83
2022/12/05 07:39:27;;;;;;;1.60;1.50;;;;;;;-12.31;69.77;101836.28;4604329;29;9999986;-85
2022/12/05 07:41:55;;;;;;;1.52;1.42;;;;;;;-12.52;70.83;101840.16;4949693;29;20063;-84
2022/12/05 07:44:22;;;;;;;1.48;1.38;;;;;;;-12.61;71.32;101842.91;4941653;29;20047;-85
2022/12/05 07:46:49;;;;;;;1.52;1.42;;;;;;;-12.74;71.78;101837.09;4944649;29;20426;-83
2022/12/05 07:49:16;;;;;;;1.52;1.42;;;;;;;-12.77;72.28;101834.53;4937509;29;20091;-85
2022/12/05 07:51:43;;;;;;;1.60;1.50;;;;;;;-12.77;72.44;101838.88;4921570;29;20108;-85
2022/12/05 07:54:10;;;;;;;1.50;1.40;;;;;;;-12.82;72.35;101838.13;4937151;29;20052;-83
2022/12/05 07:56:37;;;;;;;1.70;1.60;;;;;;;-12.90;72.32;101831.28;4937088;29;20426;-83
2022/12/05 07:59:11;;;;;;;;;;;;;;;-12.90;72.52;101830.44;4940536;29;20055;-83
2022/12/05 08:01:38;;;;;;;1.50;1.40;;;;;;;-12.91;72.40;101818.31;4954988;29;19963;-84
2022/12/05 08:04:06;;;;;;;1.50;1.40;;;;;;;-12.84;72.34;101822.53;4943667;29;20486;-85
2022/12/05 08:06:41;;;;;;;1.70;1.60;;;;;;;-12.80;72.32;101826.81;4952254;29;20058;-84
2022/12/05 08:09:08;;;;;;;1.65;1.55;;;;;;;-12.78;72.25;101822.44;4920914;29;20136;-84
2022/12/05 08:11:35;;;;;;;1.70;1.60;;;;;;;-12.71;72.32;101829.25;4940515;29;20043;-84
2022/12/05 08:14:04;;;;;;;1.70;1.60;;;;;;;-12.48;72.11;101810.59;4938688;29;20091;-83
2022/12/05 08:16:31;;;;;;;1.55;1.45;;;;;;;-12.49;71.55;101813.22;4943146;29;20565;-82
2022/12/05 08:19:15;;;;;;;1.50;1.40;;;;;;;-12.34;71.35;101806.88;4943373;29;20511;-84
2022/12/05 08:21:43;;;;;;;1.70;1.60;;;;;;;-12.44;71.48;101808.78;4935873;29;20088;-82
2022/12/05 08:24:10;;;;;;;1.70;1.60;;;;;;;-12.26;71.34;101802.38;4952707;29;20047;-83
2022/12/05 08:26:38;;;;;;;1.60;1.50;;;;;;;-12.01;71.22;101800.97;4952816;29;20145;-83
2022/12/05 08:29:08;;;;;;;1.70;1.60;;;;;;;-10.75;69.44;101790.16;4953073;29;20078;-83
2022/12/05 08:31:48;;;;;;;2.00;1.90;;;;;;;-9.91;66.94;101788.66;4934742;29;20082;-82
2022/12/05 08:34:18;;;;;;;1.70;1.60;;;;;;;-9.40;64.79;101774.88;4941790;29;20062;-82
2022/12/05 08:36:45;;;;;;;1.83;1.73;;;;;;;-9.32;63.74;101791.16;4924170;29;20077;-82
2022/12/05 08:39:14;;;;;;;1.90;1.80;;;;;;;-8.68;62.57;101776.84;4942146;29;20047;-84
2022/12/05 08:41:43;;;;;;;1.70;1.60;;;;;;;-8.30;62.29;101778.09;4943166;29;20109;-84
2022/12/05 08:44:15;;;;;;;1.70;1.60;;;;;;;-7.83;61.03;101766.72;4946608;29;20047;-83
2022/12/05 08:46:43;;;;;;;1.80;1.70;;;;;;;-7.87;58.87;101763.38;4946769;29;20051;-83
2022/12/05 08:49:11;;;;;;;1.83;1.73;;;;;;;-7.93;58.89;101781.94;4944541;29;20059;-82
2022/12/05 08:51:39;;;;;;;1.85;1.75;;;;;;;-7.26;58.38;101773.22;4950781;29;20055;-85
2022/12/05 08:54:06;;;;;;;1.73;1.63;;;;;;;-6.92;57.14;101767.41;4957385;29;20059;-83
2022/12/05 08:56:33;;;;;;;1.73;1.63;;;;;;;-7.28;56.67;101759.28;4926214;29;20059;-83
2022/12/05 08:59:02;;;;;;;1.70;1.60;;;;;;;-7.10;56.47;101763.78;4942194;29;20062;-84
2022/12/05 09:01:35;;;;;;;1.50;1.40;;;;;;;-7.22;55.12;101749.38;4947804;29;20134;-83
2022/12/05 09:04:04;;;;;;;1.70;1.60;;;;;;;-7.54;55.69;101755.97;4945367;29;20055;-83
2022/12/05 09:06:33;;;;;;;1.65;1.55;;;;;;;-7.34;56.02;101752.53;4936177;29;20070;-84
2022/12/05 09:09:03;;;;;;;1.10;1.10;;;;;;;-7.13;56.00;101757.81;4932353;29;20134;-82
2022/12/05 09:11:34;;;;;;;1.63;1.52;;;;;;;-7.01;54.78;101752.91;4946151;29;20103;-83
2022/12/05 09:14:01;;;;;;;1.55;1.45;;;;;;;-7.47;54.99;101744.31;4924905;29;20058;-83
2022/12/05 09:16:31;;;;;;;1.30;1.20;;;;;;;-8.02;56.39;101741.22;4936821;29;20052;-83
2022/12/05 09:19:10;;;;;;;1.70;1.60;;;;;;;-8.13;57.25;101727.66;4920845;29;20055;-81
2022/12/05 09:21:37;;;;;;;1.65;1.55;;;;;;;-7.58;56.55;101733.38;4935435;29;20071;-82
2022/12/05 09:24:05;;;;;;;1.60;1.50;;;;;;;-6.58;55.62;101721.31;4956207;29;20051;-84
2022/12/05 09:26:32;;;;;;;1.50;1.40;;;;;;;-6.05;54.52;101717.16;4946931;29;20224;-86
2022/12/05 09:29:01;;;;;;;1.30;1.20;;;;;;;-6.00;54.54;101716.03;4960553;29;20137;-84
2022/12/05 09:31:29;;;;;;;1.48;1.38;;;;;;;-6.48;54.49;101716.47;4943644;29;20047;-85
2022/12/05 09:33:56;;;;;;;1.42;1.33;;;;;;;-7.26;55.14;101712.84;4939609;29;20058;-85
2022/12/05 09:36:25;;;;;;;1.40;1.30;;;;;;;-7.82;56.52;101722.09;4940968;29;20055;-84
2022/12/05 09:38:54;;;;;;;1.15;1.15;;;;;;;-7.96;57.13;101708.66;4960018;29;20568;-84
2022/12/05 09:42:03;;;;;;;1.30;1.20;;;;;;;-7.81;57.12;101718.56;4955651;29;20544;-89
2022/12/05 09:44:56;;;;;;;1.60;1.50;;;;;;;-7.58;56.78;101714.16;4955878;28;20105;-83
2022/12/05 09:47:27;;;;;;;1.40;1.30;;;;;;;-7.43;56.91;101713.53;4941090;29;20065;-85
2022/12/05 09:50:20;;;;;;;1.40;1.30;;;;;;;-7.43;56.69;101714.38;4941795;29;20073;-85
2022/12/05 09:52:59;;;;;;;1.40;1.30;;;;;;;-7.37;56.92;101707.19;4937532;29;20052;-86
2022/12/05 09:55:34;;;;;;;1.40;1.30;;;;;;;-7.31;56.93;101696.44;4940898;28;20144;-84
2022/12/05 09:58:02;;;;;;;1.40;1.30;;;;;;;-7.43;56.55;101689.94;4957041;28;20075;-84
2022/12/05 10:00:31;;;;;;;1.30;1.20;;;;;;;-7.73;56.56;101692.03;4949349;29;20085;-87
2022/12/05 10:03:07;;;;;;;1.13;1.13;;;;;;;-7.99;56.80;101682.59;4952468;28;20058;-87
2022/12/05 10:05:43;;;;;;;1.42;1.33;;;;;;;-7.91;56.92;101691.00;4980824;28;20042;-85
2022/12/05 10:08:18;;;;;;;1.50;1.40;;;;;;;-7.76;56.74;101682.50;4980978;28;20055;-88
2022/12/05 10:11:13;;;;;;;1.45;1.35;;;;;;;-7.78;56.75;101680.88;4982811;28;20069;-88
2022/12/05 10:13:52;;;;;;;1.40;1.30;;;;;;;-7.80;56.81;101670.44;4977644;28;20047;-90
2022/12/05 10:16:31;;;;;;;1.33;1.23;;;;;;;-7.81;56.73;101676.59;4998148;28;20094;-86
2022/12/05 10:19:10;;;;;;;1.30;1.20;;;;;;;-7.93;56.99;101653.50;4954482;28;20066;-89
2022/12/05 10:21:48;;;;;;;1.40;1.30;;;;;;;-7.96;56.19;101667.56;4923734;29;20094;-87
2022/12/05 10:24:21;;;;;;;1.40;1.30;;;;;;;-8.06;56.75;101668.84;4921069;29;20059;-88
2022/12/05 10:26:58;;;;;;;1.20;1.20;;;;;;;-7.78;56.36;101663.38;4951620;29;20066;-89
2022/12/05 10:29:30;;;;;;;1.30;1.20;;;;;;;-7.53;56.12;101676.34;4949190;29;20051;-88
2022/12/05 10:32:20;;;;;;;1.38;1.27;;;;;;;-7.95;55.96;101666.69;4966927;29;20047;-88
2022/12/05 10:34:50;;;;;;;1.00;1.00;;;;;;;-7.96;56.71;101672.81;4948518;29;20055;-88
2022/12/05 10:37:22;;;;;;;1.40;1.30;;;;;;;-7.97;56.55;101665.88;4920612;29;20107;-87
2022/12/05 10:39:50;;;;;;;1.33;1.23;;;;;;;-8.40;56.99;101662.34;4963482;29;20055;-88
2022/12/05 10:42:33;;;;;;;1.15;1.13;;;;;;;-8.85;57.69;101664.88;4924227;28;20086;-89
2022/12/05 10:45:21;;;;;;;1.33;1.23;;;;;;;-9.21;58.53;101663.50;4953580;29;20028;-89
2022/12/05 10:47:53;;;;;;;1.38;1.27;;;;;;;-9.26;59.15;101667.19;4956589;28;20079;-89
2022/12/05 10:50:29;;;;;;;1.58;1.48;;;;;;;-9.36;59.40;101668.41;4954785;29;20054;-89
2022/12/05 10:53:02;;;;;;;1.48;1.38;;;;;;;-9.46;59.73;101662.66;4924968;29;20079;-90
2022/12/05 10:55:36;;;;;;;1.50;1.40;;;;;;;-9.50;60.21;101659.25;4938109;29;20070;-90
2022/12/05 10:58:26;;;;;;;1.30;1.20;;;;;;;-9.54;60.26;101656.78;4910388;29;20052;-88
2022/12/05 11:00:55;;;;;;;1.40;1.30;;;;;;;-9.67;60.63;101654.59;4893950;29;20052;-88
2022/12/05 11:03:39;;;;;;;1.40;1.30;;;;;;;-9.63;60.87;101660.56;4919167;29;20052;-89
2022/12/05 11:06:29;;;;;;;1.40;1.30;;;;;;;-9.57;61.08;101657.75;4917794;29;20082;-90
2022/12/05 11:09:03;;;;;;;1.33;1.23;;;;;;;-9.53;61.10;101642.84;4928374;29;20094;-89
2022/12/05 11:11:32;;;;;;;1.70;1.60;;;;;;;-9.56;60.74;101641.16;4927370;29;20055;-85
2022/12/05 11:14:19;;;;;;;1.45;1.35;;;;;;;-9.71;61.02;101650.38;4909142;29;20107;-85
2022/12/05 11:16:55;;;;;;;1.55;1.45;;;;;;;-9.85;61.43;101639.50;4920576;29;20060;-86
2022/12/05 11:19:25;;;;;;;1.50;1.40;;;;;;;-9.94;61.68;101634.59;4950234;28;20067;-89
2022/12/05 11:21:54;;;;;;;1.50;1.40;;;;;;;-9.96;62.04;101636.41;4940755;29;20040;-91
2022/12/05 11:24:35;;;;;;;1.60;1.50;;;;;;;-10.04;62.25;101634.88;4945392;29;20051;-93
2022/12/05 11:27:40;;;;;;;1.58;1.48;;;;;;;-10.08;62.68;101624.56;4958283;29;20048;-93
2022/12/05 11:30:12;;;;;;;1.50;1.40;;;;;;;-10.19;62.69;101635.34;4959450;29;20047;-90
2022/12/05 11:33:09;;;;;;;1.52;1.42;;;;;;;-10.20;62.98;101631.06;4959423;29;20055;-88
2022/12/05 11:36:59;;;;;;;1.48;1.38;;;;;;;-10.20;63.21;101628.44;4899978;29;20072;-92
2022/12/05 11:39:47;;;;;;;1.60;1.50;;;;;;;-10.26;63.17;101620.78;4867080;29;20052;-89
2022/12/05 11:43:07;;;;;;;1.45;1.35;;;;;;;-10.29;63.67;101623.53;4882125;29;20056;-90
2022/12/05 11:46:25;;;;;;;1.70;1.60;;;;;;;-10.29;63.82;101623.53;4882944;29;20060;-92
2022/12/05 11:49:22;;;;;;;1.35;1.25;;;;;;;-10.23;63.93;101615.44;4844217;29;20030;-91
2022/12/05 11:52:13;;;;;;;1.60;1.50;;;;;;;-10.26;64.06;101608.56;4858433;29;20083;-93
2022/12/05 11:55:10;;;;;;;1.50;1.40;;;;;;;-10.26;64.00;101594.66;4848660;29;20186;-92
2022/12/05 11:57:50;;;;;;;1.50;1.40;;;;;;;-10.31;64.18;101594.84;4815201;29;20054;-91